sensor_id;sensor_type;location;lat;lon;timestamp;P1;durP1;ratioP1;P2;durP2;ratioP2
23474;SDS011;11910;52.086;21.066;2023-04-03T00:01:05;5.85;;;2.40;;
23474;SDS011;11910;52.086;21.066;2023-04-03T00:03:31;5.72;;;2.80;;
23474;SDS011;11910;52.086;21.066;2023-04-03T00:05:57;5.90;;;2.80;;
23474;SDS011;11910;52.086;21.066;2023-04-03T00:08:23;6.13;;;2.70;;
23474;SDS011;11910;52.086;21.066;2023-04-03T00:10:48;4.78;;;2.00;;
23474;SDS011;11910;52.086;21.066;2023-04-03T00:13:15;3.83;;;2.10;;
23474;SDS011;11910;52.086;21.066;2023-04-03T00:15:41;4.22;;;1.90;;
23474;SDS011;11910;52.086;21.066;2023-04-03T00:18:06;5.43;;;2.15;;
23474;SDS011;11910;52.086;21.066;2023-04-03T00:20:33;5.03;;;2.15;;
23474;SDS011;11910;52.086;21.066;2023-04-03T00:22:59;3.75;;;2.00;;
23474;SDS011;11910;52.086;21.066;2023-04-03T00:25:25;4.03;;;1.88;;
23474;SDS011;11910;52.086;21.066;2023-04-03T00:27:50;3.55;;;2.05;;
23474;SDS011;11910;52.086;21.066;2023-04-03T00:30:17;5.97;;;2.10;;
23474;SDS011;11910;52.086;21.066;2023-04-03T00:32:47;5.72;;;2.10;;
23474;SDS011;11910;52.086;21.066;2023-04-03T00:35:13;5.60;;;1.80;;
23474;SDS011;11910;52.086;21.066;2023-04-03T00:37:40;3.97;;;2.05;;
23474;SDS011;11910;52.086;21.066;2023-04-03T00:40:07;3.85;;;2.00;;
23474;SDS011;11910;52.086;21.066;2023-04-03T00:42:34;4.60;;;2.40;;
23474;SDS011;11910;52.086;21.066;2023-04-03T00:47:27;5.32;;;2.30;;
23474;SDS011;11910;52.086;21.066;2023-04-03T00:49:54;5.70;;;2.17;;
23474;SDS011;11910;52.086;21.066;2023-04-03T00:52:21;4.53;;;1.95;;
23474;SDS011;11910;52.086;21.066;2023-04-03T00:54:52;4.15;;;1.98;;
23474;SDS011;11910;52.086;21.066;2023-04-03T00:57:23;4.97;;;1.67;;
23474;SDS011;11910;52.086;21.066;2023-04-03T00:59:50;7.55;;;2.10;;
23474;SDS011;11910;52.086;21.066;2023-04-03T01:02:20;5.33;;;2.17;;
23474;SDS011;11910;52.086;21.066;2023-04-03T01:04:46;4.60;;;2.10;;
23474;SDS011;11910;52.086;21.066;2023-04-03T01:09:38;4.70;;;2.10;;
23474;SDS011;11910;52.086;21.066;2023-04-03T01:15:20;5.15;;;1.85;;
23474;SDS011;11910;52.086;21.066;2023-04-03T01:17:46;4.57;;;1.85;;
23474;SDS011;11910;52.086;21.066;2023-04-03T01:28:13;3.72;;;1.83;;
23474;SDS011;11910;52.086;21.066;2023-04-03T01:30:46;3.72;;;1.90;;
23474;SDS011;11910;52.086;21.066;2023-04-03T01:33:28;4.15;;;1.70;;
23474;SDS011;11910;52.086;21.066;2023-04-03T01:35:55;6.18;;;1.85;;
23474;SDS011;11910;52.086;21.066;2023-04-03T01:38:20;3.95;;;1.70;;
23474;SDS011;11910;52.086;21.066;2023-04-03T01:40:46;5.57;;;1.80;;
23474;SDS011;11910;52.086;21.066;2023-04-03T01:43:12;3.60;;;1.80;;
23474;SDS011;11910;52.086;21.066;2023-04-03T01:45:37;5.20;;;1.80;;
23474;SDS011;11910;52.086;21.066;2023-04-03T01:48:03;3.45;;;1.70;;
23474;SDS011;11910;52.086;21.066;2023-04-03T01:50:29;3.78;;;1.80;;
23474;SDS011;11910;52.086;21.066;2023-04-03T01:52:55;5.03;;;1.77;;
23474;SDS011;11910;52.086;21.066;2023-04-03T01:55:20;5.05;;;1.75;;
23474;SDS011;11910;52.086;21.066;2023-04-03T01:57:46;3.90;;;1.98;;
23474;SDS011;11910;52.086;21.066;2023-04-03T02:00:11;4.05;;;1.70;;
23474;SDS011;11910;52.086;21.066;2023-04-03T02:02:37;4.90;;;1.85;;
23474;SDS011;11910;52.086;21.066;2023-04-03T02:05:03;4.97;;;2.00;;
23474;SDS011;11910;52.086;21.066;2023-04-03T02:07:29;3.72;;;1.60;;
23474;SDS011;11910;52.086;21.066;2023-04-03T02:09:55;5.65;;;1.83;;
23474;SDS011;11910;52.086;21.066;2023-04-03T02:12:20;3.42;;;1.75;;
23474;SDS011;11910;52.086;21.066;2023-04-03T02:14:46;3.97;;;1.50;;
23474;SDS011;11910;52.086;21.066;2023-04-03T02:17:12;2.97;;;1.52;;
23474;SDS011;11910;52.086;21.066;2023-04-03T02:19:37;5.03;;;1.55;;
23474;SDS011;11910;52.086;21.066;2023-04-03T02:22:03;3.78;;;1.55;;
23474;SDS011;11910;52.086;21.066;2023-04-03T02:24:29;3.35;;;1.63;;
23474;SDS011;11910;52.086;21.066;2023-04-03T02:26:55;3.20;;;1.67;;
23474;SDS011;11910;52.086;21.066;2023-04-03T02:29:21;3.67;;;1.65;;
23474;SDS011;11910;52.086;21.066;2023-04-03T02:31:47;5.25;;;1.63;;
23474;SDS011;11910;52.086;21.066;2023-04-03T02:34:13;3.05;;;1.63;;
23474;SDS011;11910;52.086;21.066;2023-04-03T02:36:38;5.18;;;2.10;;
23474;SDS011;11910;52.086;21.066;2023-04-03T02:39:04;3.90;;;1.50;;
23474;SDS011;11910;52.086;21.066;2023-04-03T02:41:30;6.25;;;1.75;;
23474;SDS011;11910;52.086;21.066;2023-04-03T02:44:04;3.95;;;1.60;;
23474;SDS011;11910;52.086;21.066;2023-04-03T02:46:31;6.03;;;1.60;;
23474;SDS011;11910;52.086;21.066;2023-04-03T02:48:57;4.95;;;1.45;;
23474;SDS011;11910;52.086;21.066;2023-04-03T02:51:23;6.18;;;2.42;;
23474;SDS011;11910;52.086;21.066;2023-04-03T02:53:49;3.92;;;1.67;;
23474;SDS011;11910;52.086;21.066;2023-04-03T02:56:15;3.15;;;1.77;;
23474;SDS011;11910;52.086;21.066;2023-04-03T02:58:42;4.55;;;1.45;;
23474;SDS011;11910;52.086;21.066;2023-04-03T03:01:07;3.38;;;1.38;;
23474;SDS011;11910;52.086;21.066;2023-04-03T03:03:33;5.00;;;1.90;;
23474;SDS011;11910;52.086;21.066;2023-04-03T03:08:31;4.70;;;1.50;;
23474;SDS011;11910;52.086;21.066;2023-04-03T03:10:58;3.03;;;1.50;;
23474;SDS011;11910;52.086;21.066;2023-04-03T03:13:23;5.55;;;1.80;;
23474;SDS011;11910;52.086;21.066;2023-04-03T03:15:49;3.17;;;1.60;;
23474;SDS011;11910;52.086;21.066;2023-04-03T03:18:15;4.65;;;1.65;;
23474;SDS011;11910;52.086;21.066;2023-04-03T03:20:40;3.30;;;1.73;;
23474;SDS011;11910;52.086;21.066;2023-04-03T03:23:06;6.30;;;2.00;;
23474;SDS011;11910;52.086;21.066;2023-04-03T03:25:32;5.10;;;1.48;;
23474;SDS011;11910;52.086;21.066;2023-04-03T03:27:57;3.47;;;1.77;;
23474;SDS011;11910;52.086;21.066;2023-04-03T03:30:23;3.33;;;1.50;;
23474;SDS011;11910;52.086;21.066;2023-04-03T03:32:48;4.53;;;1.80;;
23474;SDS011;11910;52.086;21.066;2023-04-03T03:35:14;3.10;;;1.30;;
23474;SDS011;11910;52.086;21.066;2023-04-03T03:37:39;3.53;;;1.70;;
23474;SDS011;11910;52.086;21.066;2023-04-03T03:40:05;3.63;;;1.65;;
23474;SDS011;11910;52.086;21.066;2023-04-03T03:42:31;4.43;;;1.88;;
23474;SDS011;11910;52.086;21.066;2023-04-03T03:44:57;6.57;;;2.00;;
23474;SDS011;11910;52.086;21.066;2023-04-03T03:47:22;3.88;;;1.60;;
23474;SDS011;11910;52.086;21.066;2023-04-03T03:49:48;4.20;;;1.60;;
23474;SDS011;11910;52.086;21.066;2023-04-03T03:52:14;4.05;;;1.55;;
23474;SDS011;11910;52.086;21.066;2023-04-03T03:54:39;3.97;;;1.60;;
23474;SDS011;11910;52.086;21.066;2023-04-03T03:57:05;3.55;;;1.40;;
23474;SDS011;11910;52.086;21.066;2023-04-03T03:59:30;3.47;;;1.60;;
23474;SDS011;11910;52.086;21.066;2023-04-03T04:01:56;2.97;;;1.42;;
23474;SDS011;11910;52.086;21.066;2023-04-03T04:04:22;2.70;;;1.40;;
23474;SDS011;11910;52.086;21.066;2023-04-03T04:06:47;5.45;;;1.85;;
23474;SDS011;11910;52.086;21.066;2023-04-03T04:09:13;4.82;;;1.80;;
23474;SDS011;11910;52.086;21.066;2023-04-03T04:11:38;4.22;;;1.90;;
23474;SDS011;11910;52.086;21.066;2023-04-03T04:14:05;3.65;;;1.65;;
23474;SDS011;11910;52.086;21.066;2023-04-03T04:16:31;4.03;;;1.50;;
23474;SDS011;11910;52.086;21.066;2023-04-03T04:18:56;3.20;;;1.50;;
23474;SDS011;11910;52.086;21.066;2023-04-03T04:21:22;5.22;;;1.70;;
23474;SDS011;11910;52.086;21.066;2023-04-03T04:23:47;5.40;;;1.77;;
23474;SDS011;11910;52.086;21.066;2023-04-03T04:26:13;3.78;;;1.60;;
23474;SDS011;11910;52.086;21.066;2023-04-03T04:28:39;6.35;;;1.80;;
23474;SDS011;11910;52.086;21.066;2023-04-03T04:31:04;4.05;;;1.60;;
23474;SDS011;11910;52.086;21.066;2023-04-03T04:33:30;4.22;;;1.75;;
23474;SDS011;11910;52.086;21.066;2023-04-03T04:35:55;7.13;;;1.98;;
23474;SDS011;11910;52.086;21.066;2023-04-03T04:38:21;4.88;;;2.00;;
23474;SDS011;11910;52.086;21.066;2023-04-03T04:40:47;4.90;;;1.58;;
23474;SDS011;11910;52.086;21.066;2023-04-03T04:43:13;4.63;;;1.70;;
23474;SDS011;11910;52.086;21.066;2023-04-03T04:45:39;4.57;;;1.63;;
23474;SDS011;11910;52.086;21.066;2023-04-03T04:48:05;2.75;;;1.40;;
23474;SDS011;11910;52.086;21.066;2023-04-03T04:50:31;6.30;;;1.70;;
23474;SDS011;11910;52.086;21.066;2023-04-03T04:52:57;3.42;;;1.40;;
23474;SDS011;11910;52.086;21.066;2023-04-03T04:55:22;3.78;;;1.55;;
23474;SDS011;11910;52.086;21.066;2023-04-03T04:57:48;4.22;;;1.70;;
23474;SDS011;11910;52.086;21.066;2023-04-03T05:00:14;3.00;;;1.30;;
23474;SDS011;11910;52.086;21.066;2023-04-03T05:02:40;2.33;;;1.55;;
23474;SDS011;11910;52.086;21.066;2023-04-03T05:05:06;4.40;;;1.48;;
23474;SDS011;11910;52.086;21.066;2023-04-03T05:07:32;5.85;;;1.88;;
23474;SDS011;11910;52.086;21.066;2023-04-03T05:09:58;4.75;;;1.67;;
23474;SDS011;11910;52.086;21.066;2023-04-03T05:12:23;5.18;;;1.80;;
23474;SDS011;11910;52.086;21.066;2023-04-03T05:14:49;2.75;;;1.42;;
23474;SDS011;11910;52.086;21.066;2023-04-03T05:17:15;4.90;;;1.90;;
23474;SDS011;11910;52.086;21.066;2023-04-03T05:19:40;5.32;;;1.65;;
23474;SDS011;11910;52.086;21.066;2023-04-03T05:22:06;7.93;;;1.90;;
23474;SDS011;11910;52.086;21.066;2023-04-03T05:24:32;6.50;;;1.95;;
23474;SDS011;11910;52.086;21.066;2023-04-03T05:26:58;4.80;;;1.85;;
23474;SDS011;11910;52.086;21.066;2023-04-03T05:29:27;5.28;;;1.70;;
23474;SDS011;11910;52.086;21.066;2023-04-03T05:31:53;4.35;;;1.70;;
23474;SDS011;11910;52.086;21.066;2023-04-03T05:34:18;6.20;;;1.90;;
23474;SDS011;11910;52.086;21.066;2023-04-03T05:36:44;3.08;;;1.75;;
23474;SDS011;11910;52.086;21.066;2023-04-03T05:39:10;7.38;;;2.20;;
23474;SDS011;11910;52.086;21.066;2023-04-03T05:41:35;8.18;;;1.80;;
23474;SDS011;11910;52.086;21.066;2023-04-03T05:44:01;5.13;;;1.85;;
23474;SDS011;11910;52.086;21.066;2023-04-03T05:47:13;3.60;;;1.50;;
23474;SDS011;11910;52.086;21.066;2023-04-03T05:49:38;5.65;;;1.80;;
23474;SDS011;11910;52.086;21.066;2023-04-03T05:52:13;5.07;;;2.00;;
23474;SDS011;11910;52.086;21.066;2023-04-03T05:54:47;6.22;;;2.00;;
23474;SDS011;11910;52.086;21.066;2023-04-03T05:57:13;4.38;;;1.80;;
23474;SDS011;11910;52.086;21.066;2023-04-03T05:59:43;4.95;;;2.00;;
23474;SDS011;11910;52.086;21.066;2023-04-03T06:02:13;4.95;;;2.00;;
23474;SDS011;11910;52.086;21.066;2023-04-03T06:04:41;5.13;;;1.90;;
23474;SDS011;11910;52.086;21.066;2023-04-03T06:07:06;4.45;;;1.90;;
23474;SDS011;11910;52.086;21.066;2023-04-03T06:09:36;5.28;;;2.03;;
23474;SDS011;11910;52.086;21.066;2023-04-03T06:12:01;6.60;;;1.85;;
23474;SDS011;11910;52.086;21.066;2023-04-03T06:14:27;4.00;;;1.63;;
23474;SDS011;11910;52.086;21.066;2023-04-03T06:16:55;4.43;;;1.67;;
23474;SDS011;11910;52.086;21.066;2023-04-03T06:19:21;4.25;;;1.70;;
23474;SDS011;11910;52.086;21.066;2023-04-03T06:21:47;5.55;;;1.90;;
23474;SDS011;11910;52.086;21.066;2023-04-03T06:24:14;5.55;;;1.80;;
23474;SDS011;11910;52.086;21.066;2023-04-03T06:26:51;5.18;;;1.88;;
23474;SDS011;11910;52.086;21.066;2023-04-03T06:29:18;5.63;;;2.10;;
23474;SDS011;11910;52.086;21.066;2023-04-03T06:31:47;4.88;;;1.80;;
23474;SDS011;11910;52.086;21.066;2023-04-03T06:34:13;4.30;;;1.88;;
23474;SDS011;11910;52.086;21.066;2023-04-03T06:36:45;5.80;;;1.80;;
23474;SDS011;11910;52.086;21.066;2023-04-03T06:39:18;4.03;;;1.80;;
23474;SDS011;11910;52.086;21.066;2023-04-03T06:41:46;3.42;;;1.70;;
23474;SDS011;11910;52.086;21.066;2023-04-03T06:44:11;5.38;;;1.70;;
23474;SDS011;11910;52.086;21.066;2023-04-03T06:46:40;4.93;;;2.03;;
23474;SDS011;11910;52.086;21.066;2023-04-03T06:49:06;7.05;;;1.90;;
23474;SDS011;11910;52.086;21.066;2023-04-03T06:51:35;4.57;;;1.73;;
23474;SDS011;11910;52.086;21.066;2023-04-03T06:54:01;4.78;;;2.00;;
23474;SDS011;11910;52.086;21.066;2023-04-03T06:56:28;5.97;;;2.08;;
23474;SDS011;11910;52.086;21.066;2023-04-03T06:58:54;6.68;;;2.35;;
23474;SDS011;11910;52.086;21.066;2023-04-03T07:01:22;3.80;;;2.13;;
23474;SDS011;11910;52.086;21.066;2023-04-03T07:03:51;3.42;;;1.70;;
23474;SDS011;11910;52.086;21.066;2023-04-03T07:06:17;4.03;;;1.73;;
23474;SDS011;11910;52.086;21.066;2023-04-03T07:08:43;4.82;;;2.25;;
23474;SDS011;11910;52.086;21.066;2023-04-03T07:11:10;5.38;;;2.08;;
23474;SDS011;11910;52.086;21.066;2023-04-03T07:13:37;6.50;;;2.15;;
23474;SDS011;11910;52.086;21.066;2023-04-03T07:16:03;5.07;;;2.00;;
23474;SDS011;11910;52.086;21.066;2023-04-03T07:18:30;4.57;;;1.90;;
23474;SDS011;11910;52.086;21.066;2023-04-03T07:24:42;4.18;;;1.65;;
23474;SDS011;11910;52.086;21.066;2023-04-03T07:27:08;4.57;;;1.92;;
23474;SDS011;11910;52.086;21.066;2023-04-03T07:29:40;3.67;;;1.90;;
23474;SDS011;11910;52.086;21.066;2023-04-03T07:35:21;5.25;;;1.80;;
23474;SDS011;11910;52.086;21.066;2023-04-03T07:37:53;5.15;;;1.55;;
23474;SDS011;11910;52.086;21.066;2023-04-03T07:40:18;5.03;;;2.00;;
23474;SDS011;11910;52.086;21.066;2023-04-03T07:49:26;2.65;;;1.73;;
23474;SDS011;11910;52.086;21.066;2023-04-03T07:52:13;3.92;;;2.10;;
23474;SDS011;11910;52.086;21.066;2023-04-03T07:54:56;5.05;;;2.00;;
23474;SDS011;11910;52.086;21.066;2023-04-03T07:57:22;3.97;;;2.03;;
23474;SDS011;11910;52.086;21.066;2023-04-03T07:59:48;5.38;;;1.80;;
23474;SDS011;11910;52.086;21.066;2023-04-03T08:02:13;3.30;;;1.73;;
23474;SDS011;11910;52.086;21.066;2023-04-03T08:04:39;4.40;;;1.88;;
23474;SDS011;11910;52.086;21.066;2023-04-03T08:07:04;3.60;;;1.45;;
23474;SDS011;11910;52.086;21.066;2023-04-03T08:09:30;5.32;;;1.80;;
23474;SDS011;11910;52.086;21.066;2023-04-03T08:11:56;3.50;;;1.75;;
23474;SDS011;11910;52.086;21.066;2023-04-03T08:14:23;6.10;;;1.98;;
23474;SDS011;11910;52.086;21.066;2023-04-03T08:16:48;2.65;;;1.52;;
23474;SDS011;11910;52.086;21.066;2023-04-03T08:19:15;2.30;;;1.48;;
23474;SDS011;11910;52.086;21.066;2023-04-03T08:21:43;3.72;;;1.65;;
23474;SDS011;11910;52.086;21.066;2023-04-03T08:24:09;3.65;;;1.48;;
23474;SDS011;11910;52.086;21.066;2023-04-03T08:26:35;2.80;;;1.55;;
23474;SDS011;11910;52.086;21.066;2023-04-03T08:29:00;2.80;;;1.80;;
23474;SDS011;11910;52.086;21.066;2023-04-03T08:31:26;3.60;;;1.90;;
23474;SDS011;11910;52.086;21.066;2023-04-03T08:33:52;3.25;;;1.60;;
23474;SDS011;11910;52.086;21.066;2023-04-03T08:38:45;6.82;;;1.55;;
23474;SDS011;11910;52.086;21.066;2023-04-03T08:46:50;3.03;;;1.30;;
23474;SDS011;11910;52.086;21.066;2023-04-03T08:49:49;3.97;;;1.50;;
23474;SDS011;11910;52.086;21.066;2023-04-03T08:58:05;2.67;;;1.70;;
23474;SDS011;11910;52.086;21.066;2023-04-03T09:00:44;3.95;;;1.55;;
23474;SDS011;11910;52.086;21.066;2023-04-03T09:03:20;3.20;;;1.40;;
23474;SDS011;11910;52.086;21.066;2023-04-03T09:05:48;2.65;;;1.27;;
23474;SDS011;11910;52.086;21.066;2023-04-03T09:11:35;2.85;;;1.20;;
23474;SDS011;11910;52.086;21.066;2023-04-03T09:22:20;2.67;;;1.40;;
23474;SDS011;11910;52.086;21.066;2023-04-03T09:25:31;5.07;;;1.40;;
23474;SDS011;11910;52.086;21.066;2023-04-03T09:27:42;2.63;;;1.50;;
23474;SDS011;11910;52.086;21.066;2023-04-03T09:30:18;1.90;;;1.30;;
23474;SDS011;11910;52.086;21.066;2023-04-03T09:32:48;4.35;;;1.40;;
23474;SDS011;11910;52.086;21.066;2023-04-03T09:35:20;2.53;;;1.40;;
23474;SDS011;11910;52.086;21.066;2023-04-03T09:37:48;3.08;;;1.50;;
23474;SDS011;11910;52.086;21.066;2023-04-03T09:40:47;1.95;;;1.30;;
23474;SDS011;11910;52.086;21.066;2023-04-03T09:45:47;4.00;;;1.73;;
23474;SDS011;11910;52.086;21.066;2023-04-03T09:51:00;1.90;;;1.38;;
23474;SDS011;11910;52.086;21.066;2023-04-03T09:53:39;3.50;;;1.48;;
23474;SDS011;11910;52.086;21.066;2023-04-03T09:58:46;2.85;;;1.60;;
23474;SDS011;11910;52.086;21.066;2023-04-03T10:06:32;2.28;;;1.50;;
23474;SDS011;11910;52.086;21.066;2023-04-03T10:09:03;2.30;;;1.40;;
23474;SDS011;11910;52.086;21.066;2023-04-03T10:11:31;2.50;;;1.63;;
23474;SDS011;11910;52.086;21.066;2023-04-03T10:13:57;2.70;;;1.70;;
23474;SDS011;11910;52.086;21.066;2023-04-03T10:16:48;2.08;;;1.50;;
23474;SDS011;11910;52.086;21.066;2023-04-03T10:19:25;2.38;;;1.58;;
23474;SDS011;11910;52.086;21.066;2023-04-03T10:21:56;2.45;;;1.42;;
23474;SDS011;11910;52.086;21.066;2023-04-03T10:24:52;2.00;;;1.33;;
23474;SDS011;11910;52.086;21.066;2023-04-03T10:27:32;1.85;;;1.40;;
23474;SDS011;11910;52.086;21.066;2023-04-03T10:43:36;4.07;;;1.60;;
23474;SDS011;11910;52.086;21.066;2023-04-03T10:46:28;4.30;;;1.80;;
23474;SDS011;11910;52.086;21.066;2023-04-03T10:51:45;2.58;;;1.30;;
23474;SDS011;11910;52.086;21.066;2023-04-03T10:54:39;1.48;;;1.17;;
23474;SDS011;11910;52.086;21.066;2023-04-03T10:57:10;2.85;;;1.30;;
23474;SDS011;11910;52.086;21.066;2023-04-03T10:59:38;2.78;;;1.45;;
23474;SDS011;11910;52.086;21.066;2023-04-03T11:02:25;5.28;;;1.77;;
23474;SDS011;11910;52.086;21.066;2023-04-03T11:05:03;3.35;;;1.67;;
23474;SDS011;11910;52.086;21.066;2023-04-03T11:07:51;2.10;;;1.20;;
23474;SDS011;11910;52.086;21.066;2023-04-03T11:10:22;1.65;;;1.00;;
23474;SDS011;11910;52.086;21.066;2023-04-03T11:15:41;4.07;;;1.23;;
23474;SDS011;11910;52.086;21.066;2023-04-03T11:18:11;1.73;;;1.20;;
23474;SDS011;11910;52.086;21.066;2023-04-03T11:20:43;4.45;;;1.50;;
23474;SDS011;11910;52.086;21.066;2023-04-03T11:23:19;1.80;;;1.30;;
23474;SDS011;11910;52.086;21.066;2023-04-03T11:25:50;4.05;;;1.27;;
23474;SDS011;11910;52.086;21.066;2023-04-03T11:28:18;1.65;;;1.02;;
23474;SDS011;11910;52.086;21.066;2023-04-03T11:33:28;3.00;;;1.30;;
23474;SDS011;11910;52.086;21.066;2023-04-03T11:36:06;1.90;;;1.20;;
23474;SDS011;11910;52.086;21.066;2023-04-03T11:38:41;2.90;;;1.20;;
23474;SDS011;11910;52.086;21.066;2023-04-03T11:41:09;1.83;;;1.15;;
23474;SDS011;11910;52.086;21.066;2023-04-03T11:46:14;3.10;;;1.35;;
23474;SDS011;11910;52.086;21.066;2023-04-03T12:05:51;3.05;;;1.17;;
23474;SDS011;11910;52.086;21.066;2023-04-03T12:19:27;1.88;;;1.00;;
23474;SDS011;11910;52.086;21.066;2023-04-03T12:28:05;5.43;;;1.10;;
23474;SDS011;11910;52.086;21.066;2023-04-03T12:31:14;4.65;;;1.30;;
23474;SDS011;11910;52.086;21.066;2023-04-03T12:36:36;1.85;;;1.20;;
23474;SDS011;11910;52.086;21.066;2023-04-03T12:48:15;5.43;;;1.35;;
23474;SDS011;11910;52.086;21.066;2023-04-03T12:50:42;3.28;;;1.40;;
23474;SDS011;11910;52.086;21.066;2023-04-03T12:53:21;2.30;;;1.27;;
23474;SDS011;11910;52.086;21.066;2023-04-03T12:55:57;3.88;;;1.25;;
23474;SDS011;11910;52.086;21.066;2023-04-03T13:01:53;1.90;;;1.20;;
23474;SDS011;11910;52.086;21.066;2023-04-03T13:04:19;2.42;;;1.13;;
23474;SDS011;11910;52.086;21.066;2023-04-03T13:06:46;2.30;;;1.20;;
23474;SDS011;11910;52.086;21.066;2023-04-03T13:09:25;2.90;;;1.30;;
23474;SDS011;11910;52.086;21.066;2023-04-03T13:11:57;2.50;;;1.30;;
23474;SDS011;11910;52.086;21.066;2023-04-03T13:14:28;2.53;;;1.40;;
23474;SDS011;11910;52.086;21.066;2023-04-03T13:19:27;2.97;;;1.50;;
23474;SDS011;11910;52.086;21.066;2023-04-03T13:21:57;2.15;;;1.40;;
23474;SDS011;11910;52.086;21.066;2023-04-03T13:24:33;1.90;;;1.10;;
23474;SDS011;11910;52.086;21.066;2023-04-03T13:27:05;2.03;;;1.20;;
23474;SDS011;11910;52.086;21.066;2023-04-03T13:29:40;1.83;;;1.10;;
23474;SDS011;11910;52.086;21.066;2023-04-03T13:32:06;4.82;;;0.93;;
23474;SDS011;11910;52.086;21.066;2023-04-03T13:38:21;1.90;;;1.20;;
23474;SDS011;11910;52.086;21.066;2023-04-03T13:40:51;2.95;;;1.08;;
23474;SDS011;11910;52.086;21.066;2023-04-03T13:43:29;3.17;;;1.70;;
23474;SDS011;11910;52.086;21.066;2023-04-03T13:48:44;1.42;;;0.80;;
23474;SDS011;11910;52.086;21.066;2023-04-03T13:51:43;3.33;;;1.20;;
23474;SDS011;11910;52.086;21.066;2023-04-03T13:54:18;1.67;;;1.00;;
23474;SDS011;11910;52.086;21.066;2023-04-03T13:57:21;1.73;;;1.02;;
23474;SDS011;11910;52.086;21.066;2023-04-03T13:59:48;1.60;;;1.10;;
23474;SDS011;11910;52.086;21.066;2023-04-03T14:02:47;2.35;;;1.30;;
23474;SDS011;11910;52.086;21.066;2023-04-03T14:05:07;3.88;;;1.70;;
23474;SDS011;11910;52.086;21.066;2023-04-03T14:07:33;3.70;;;1.70;;
23474;SDS011;11910;52.086;21.066;2023-04-03T14:09:59;1.88;;;1.23;;
23474;SDS011;11910;52.086;21.066;2023-04-03T14:15:27;1.80;;;1.40;;
23474;SDS011;11910;52.086;21.066;2023-04-03T14:18:04;4.45;;;1.40;;
23474;SDS011;11910;52.086;21.066;2023-04-03T14:20:29;2.53;;;1.45;;
23474;SDS011;11910;52.086;21.066;2023-04-03T14:22:58;6.18;;;1.65;;
23474;SDS011;11910;52.086;21.066;2023-04-03T14:25:24;4.57;;;2.83;;
23474;SDS011;11910;52.086;21.066;2023-04-03T14:27:53;5.75;;;1.92;;
23474;SDS011;11910;52.086;21.066;2023-04-03T14:30:24;3.25;;;2.00;;
23474;SDS011;11910;52.086;21.066;2023-04-03T14:33:00;3.00;;;1.77;;
23474;SDS011;11910;52.086;21.066;2023-04-03T14:35:29;4.35;;;1.70;;
23474;SDS011;11910;52.086;21.066;2023-04-03T14:37:58;2.58;;;1.60;;
23474;SDS011;11910;52.086;21.066;2023-04-03T14:40:26;2.15;;;1.20;;
23474;SDS011;11910;52.086;21.066;2023-04-03T14:42:53;2.50;;;1.27;;
23474;SDS011;11910;52.086;21.066;2023-04-03T14:45:21;4.68;;;1.35;;
23474;SDS011;11910;52.086;21.066;2023-04-03T14:47:54;2.78;;;1.63;;
23474;SDS011;11910;52.086;21.066;2023-04-03T14:50:56;3.08;;;1.83;;
23474;SDS011;11910;52.086;21.066;2023-04-03T14:53:22;6.97;;;1.92;;
23474;SDS011;11910;52.086;21.066;2023-04-03T14:55:58;5.22;;;2.00;;
23474;SDS011;11910;52.086;21.066;2023-04-03T14:58:27;3.03;;;1.63;;
23474;SDS011;11910;52.086;21.066;2023-04-03T15:00:53;2.65;;;1.40;;
23474;SDS011;11910;52.086;21.066;2023-04-03T15:03:19;3.05;;;1.45;;
23474;SDS011;11910;52.086;21.066;2023-04-03T15:05:46;3.03;;;1.58;;
23474;SDS011;11910;52.086;21.066;2023-04-03T15:08:23;2.55;;;1.52;;
23474;SDS011;11910;52.086;21.066;2023-04-03T15:10:51;3.97;;;1.58;;
23474;SDS011;11910;52.086;21.066;2023-04-03T15:13:18;4.07;;;1.40;;
23474;SDS011;11910;52.086;21.066;2023-04-03T15:15:45;3.42;;;1.40;;
23474;SDS011;11910;52.086;21.066;2023-04-03T15:18:16;3.60;;;1.58;;
23474;SDS011;11910;52.086;21.066;2023-04-03T15:20:45;3.17;;;1.50;;
23474;SDS011;11910;52.086;21.066;2023-04-03T15:23:12;3.97;;;1.50;;
23474;SDS011;11910;52.086;21.066;2023-04-03T15:25:38;3.33;;;1.30;;
23474;SDS011;11910;52.086;21.066;2023-04-03T15:28:05;2.55;;;1.40;;
23474;SDS011;11910;52.086;21.066;2023-04-03T15:30:31;2.80;;;1.40;;
23474;SDS011;11910;52.086;21.066;2023-04-03T15:32:57;3.42;;;1.52;;
23474;SDS011;11910;52.086;21.066;2023-04-03T15:35:23;2.30;;;1.30;;
23474;SDS011;11910;52.086;21.066;2023-04-03T15:37:48;2.40;;;1.30;;
23474;SDS011;11910;52.086;21.066;2023-04-03T15:40:14;2.30;;;1.35;;
23474;SDS011;11910;52.086;21.066;2023-04-03T15:42:40;3.20;;;1.60;;
23474;SDS011;11910;52.086;21.066;2023-04-03T15:45:06;2.65;;;1.30;;
23474;SDS011;11910;52.086;21.066;2023-04-03T15:47:35;2.45;;;1.30;;
23474;SDS011;11910;52.086;21.066;2023-04-03T15:50:01;6.47;;;1.40;;
23474;SDS011;11910;52.086;21.066;2023-04-03T15:52:43;1.90;;;1.10;;
23474;SDS011;11910;52.086;21.066;2023-04-03T15:55:08;2.15;;;1.40;;
23474;SDS011;11910;52.086;21.066;2023-04-03T15:57:34;2.85;;;1.70;;
23474;SDS011;11910;52.086;21.066;2023-04-03T16:00:00;3.80;;;1.58;;
23474;SDS011;11910;52.086;21.066;2023-04-03T16:02:26;1.80;;;1.30;;
23474;SDS011;11910;52.086;21.066;2023-04-03T16:04:53;4.13;;;1.63;;
23474;SDS011;11910;52.086;21.066;2023-04-03T16:07:20;3.28;;;1.40;;
23474;SDS011;11910;52.086;21.066;2023-04-03T16:09:46;4.45;;;1.30;;
23474;SDS011;11910;52.086;21.066;2023-04-03T16:12:12;4.22;;;1.48;;
23474;SDS011;11910;52.086;21.066;2023-04-03T16:14:37;4.10;;;2.00;;
23474;SDS011;11910;52.086;21.066;2023-04-03T16:17:03;4.18;;;1.90;;
23474;SDS011;11910;52.086;21.066;2023-04-03T16:19:28;3.00;;;1.80;;
23474;SDS011;11910;52.086;21.066;2023-04-03T16:21:55;2.50;;;1.33;;
23474;SDS011;11910;52.086;21.066;2023-04-03T16:24:21;3.38;;;1.80;;
23474;SDS011;11910;52.086;21.066;2023-04-03T16:26:47;3.90;;;1.70;;
23474;SDS011;11910;52.086;21.066;2023-04-03T16:29:12;2.58;;;1.63;;
23474;SDS011;11910;52.086;21.066;2023-04-03T16:31:38;3.00;;;1.50;;
23474;SDS011;11910;52.086;21.066;2023-04-03T16:34:03;4.28;;;1.70;;
23474;SDS011;11910;52.086;21.066;2023-04-03T16:36:29;3.67;;;1.58;;
23474;SDS011;11910;52.086;21.066;2023-04-03T16:38:55;2.80;;;1.60;;
23474;SDS011;11910;52.086;21.066;2023-04-03T16:41:20;3.20;;;1.83;;
23474;SDS011;11910;52.086;21.066;2023-04-03T16:43:46;3.95;;;2.08;;
23474;SDS011;11910;52.086;21.066;2023-04-03T16:46:12;3.13;;;1.92;;
23474;SDS011;11910;52.086;21.066;2023-04-03T16:48:37;3.50;;;1.90;;
23474;SDS011;11910;52.086;21.066;2023-04-03T16:51:03;3.20;;;1.58;;
23474;SDS011;11910;52.086;21.066;2023-04-03T16:53:29;3.90;;;1.60;;
23474;SDS011;11910;52.086;21.066;2023-04-03T16:55:56;3.25;;;1.70;;
23474;SDS011;11910;52.086;21.066;2023-04-03T16:58:22;4.55;;;1.58;;
23474;SDS011;11910;52.086;21.066;2023-04-03T17:03:36;4.47;;;1.70;;
23474;SDS011;11910;52.086;21.066;2023-04-03T17:06:02;2.38;;;1.77;;
23474;SDS011;11910;52.086;21.066;2023-04-03T17:08:28;5.47;;;2.00;;
23474;SDS011;11910;52.086;21.066;2023-04-03T17:10:54;5.00;;;2.00;;
23474;SDS011;11910;52.086;21.066;2023-04-03T17:13:20;3.03;;;1.80;;
23474;SDS011;11910;52.086;21.066;2023-04-03T17:15:45;4.72;;;2.15;;
23474;SDS011;11910;52.086;21.066;2023-04-03T17:18:11;4.28;;;2.08;;
23474;SDS011;11910;52.086;21.066;2023-04-03T17:20:36;3.75;;;2.00;;
23474;SDS011;11910;52.086;21.066;2023-04-03T17:23:03;3.45;;;2.10;;